COOK1: Arkansas River Nr Coolidge, KS

Data processed at Sat Mar 10 2018 23:29


All information presented herein is the property of the government of the United States of America and may be revised or deleted at any time without prior notice.
Dissemination of this information without the expressed written consent of the Public Affairs Office, Tulsa District U.S. Army Corps of Engineers is strictly prohibited.
These data are gathered electronically and, as presented, have not undergone any form of quality control. These data are not guaranteed to be valid or correct.
Go to home page.
Go to station list.

Upstream stations:

Downstream station:
Previous Day
Next Day
Current Day
    
SHEF ID:       COOK1     ARKANSAS R NR COOLIDGE, KS
STATION TYPE:  

               PRECIP     STAGE  STAGE(2)  RIV-FLOW  WTR-TEMP   CONDUCT  BAT-LOAD
                   in        ft        ft       cfs         F   umho/cm      volt
              Ccp-Rev   Ccp-Rev   Ccp-Rev   Ccp-Rev   Ccp-Rev   Ccp-Rev   Ccp-Rev
(US/Central)
03/08 00:00      0.00      3.03      3.00       119     46.29      5845     12.89
03/08 01:00      0.00      3.01      2.96       117     45.14      5828     12.65
03/08 02:00      0.00      3.05      3.03       122     44.13      5818     12.77
03/08 03:00      0.00      3.08      3.03       126     43.27      5821     12.71
03/08 04:00      0.00      3.10      3.05       128     42.55      5828     12.65
03/08 05:00      0.00      3.13      3.07       132     41.94      5875     12.65
03/08 06:00      0.00      3.14      3.10       134     41.16      5857     12.60
03/08 07:00      0.00      3.15      3.11       135     40.46      5783     12.60
03/08 08:00      0.00      3.16      3.10       137     39.96      5749     12.60
03/08 09:00      0.00      3.16      3.13       137     40.12      5720     12.89
03/08 10:00      0.00      3.16      3.13       137     41.22      5690     13.59
03/08 11:00      0.00      3.15      3.12       135     43.03      5681     13.71
03/08 12:00      0.00      3.15      3.14       135     45.41      5724     13.83
03/08 13:00      0.00      3.15      3.15       135     47.97      5722     13.83
03/08 14:00      0.00      3.15      3.17       135     50.52      6012     13.83
03/08 15:00      0.00      3.14      3.12       134     52.70      6012     13.71
03/08 16:00      0.00      3.12      3.11       131     54.30      6140     13.59
03/08 17:00      0.00      3.06      3.08       123     55.13      6444     13.36
03/08 18:00      0.00      3.03      3.02       119     55.15      6833     13.30
03/08 19:00      0.00      3.03      3.03       119     54.50      6912     13.18
03/08 20:00      0.00      3.02      3.00       118     53.74      6966     13.07
03/08 21:00      0.00      3.02      3.00       118     52.99      6964     13.00
03/08 22:00      0.00      3.02      2.97       118     51.67      6921     12.95
03/08 23:00      0.00      3.01      2.98       117     50.54      6917     12.95